Terminal Aerodrome Forecast
Issued by NWS

Home | Current Version | Previous Version | Text Only | Print | Product List | Glossary On
Versions: 1 2 3 4 5 6 7 8 9 10 11 12 13 14 15 16 17 18
401
FTUS42 KTAE 231240 AAA
TAFABY
TAF AMD
KABY 231240Z 2313/2412 27020G30KT P6SM BKN015
     FM232100 29015G25KT P6SM SCT250
     FM240100 29012KT P6SM BKN120=

USA.gov is the U.S. government's official web portal to all federal, state and local government web resources and services.